createdAt,value
2018-12-01T00:04:32.950Z,17.40
2018-12-01T00:09:54.184Z,17.93
2018-12-01T00:14:57.802Z,17.47
2018-12-01T00:20:01.354Z,17.50
2018-12-01T00:25:06.410Z,17.07
2018-12-01T00:30:17.033Z,18.10
2018-12-01T00:35:20.583Z,18.13
2018-12-01T00:40:24.135Z,17.93
2018-12-01T00:45:27.730Z,17.70
2018-12-01T00:50:31.350Z,18.37
2018-12-01T00:55:34.912Z,18.67
2018-12-01T01:00:38.822Z,19.03
2018-12-01T01:05:42.486Z,18.30
2018-12-01T01:10:46.121Z,18.43
2018-12-01T01:15:49.670Z,20.13
2018-12-01T01:20:53.154Z,19.50
2018-12-01T01:25:56.818Z,19.73
2018-12-01T01:31:00.319Z,20.43
2018-12-01T01:36:03.950Z,20.33
2018-12-01T01:41:08.264Z,20.00
2018-12-01T01:46:11.768Z,20.17
2018-12-01T01:51:15.241Z,20.83
2018-12-01T01:56:18.883Z,21.10
2018-12-01T02:01:22.392Z,21.67
2018-12-01T02:06:26.167Z,20.73
2018-12-01T02:11:29.753Z,22.10
2018-12-01T02:16:38.528Z,22.10
2018-12-01T02:21:42.065Z,21.87
2018-12-01T02:26:45.695Z,23.33
2018-12-01T02:31:49.411Z,22.40
2018-12-01T02:36:53.026Z,22.93
2018-12-01T02:41:56.522Z,23.27
2018-12-01T02:47:08.856Z,23.20
2018-12-01T02:52:12.534Z,24.53
2018-12-01T02:57:16.007Z,23.43
2018-12-01T03:02:19.774Z,23.97
2018-12-01T03:07:23.478Z,24.23
2018-12-01T03:12:32.833Z,24.47
2018-12-01T03:17:36.412Z,25.20
2018-12-01T03:22:40.295Z,25.20
2018-12-01T03:27:43.813Z,26.80
2018-12-01T03:32:48.865Z,25.87
2018-12-01T03:37:52.443Z,25.73
2018-12-01T03:42:56.069Z,26.43
2018-12-01T03:47:59.672Z,24.70
2018-12-01T03:53:03.225Z,26.53
2018-12-01T03:58:06.838Z,26.00
2018-12-01T04:03:10.522Z,27.33
2018-12-01T04:08:14.173Z,27.23
2018-12-01T04:13:18.430Z,27.57
2018-12-01T04:18:22.129Z,28.83
2018-12-01T04:23:25.625Z,28.37
2018-12-01T04:28:29.259Z,29.03
2018-12-01T04:33:32.784Z,30.07
2018-12-01T04:38:36.302Z,32.23
2018-12-01T04:43:40.160Z,32.97
2018-12-01T04:48:43.916Z,34.00
2018-12-01T04:53:47.564Z,36.57
2018-12-01T04:58:51.246Z,34.40
2018-12-01T05:03:54.830Z,37.50
2018-12-01T05:08:58.586Z,38.60
2018-12-01T05:14:02.503Z,37.63
2018-12-01T05:19:06.347Z,39.43
2018-12-01T05:24:09.941Z,40.73
2018-12-01T05:29:13.491Z,40.03
2018-12-01T05:34:16.957Z,40.03
2018-12-01T05:39:20.557Z,40.10
2018-12-01T05:44:24.027Z,39.97
2018-12-01T05:49:27.609Z,36.87
2018-12-01T05:54:31.182Z,37.63
2018-12-01T05:59:34.797Z,38.23
2018-12-01T06:04:38.421Z,39.40
2018-12-01T06:09:42.155Z,38.73
2018-12-01T06:14:45.623Z,37.47
2018-12-01T06:19:49.163Z,39.37
2018-12-01T06:24:52.696Z,37.57
2018-12-01T06:29:56.261Z,38.63
2018-12-01T06:35:00.311Z,38.53
2018-12-01T06:40:08.230Z,38.30
2018-12-01T06:45:13.012Z,36.00
2018-12-01T06:50:20.771Z,36.43
2018-12-01T06:55:24.502Z,37.67
2018-12-01T07:00:28.112Z,35.47
2018-12-01T07:05:31.595Z,37.30
2018-12-01T07:10:35.195Z,35.17
2018-12-01T07:15:40.390Z,35.37
2018-12-01T07:20:43.896Z,36.03
2018-12-01T07:25:47.501Z,33.63
2018-12-01T07:30:51.067Z,35.13
2018-12-01T07:35:54.706Z,32.13
2018-12-01T07:40:58.193Z,31.87
2018-12-01T07:46:02.253Z,31.33
2018-12-01T07:51:05.953Z,30.87
2018-12-01T07:56:10.000Z,30.53
2018-12-01T08:01:14.312Z,28.97
2018-12-01T08:06:18.112Z,26.93
2018-12-01T08:11:21.710Z,26.33
2018-12-01T08:16:25.766Z,25.60
2018-12-01T08:21:29.430Z,24.73
2018-12-01T08:26:32.943Z,23.27
2018-12-01T08:31:36.515Z,26.37
2018-12-01T08:36:40.262Z,23.87
2018-12-01T08:41:44.301Z,24.30
2018-12-01T08:46:47.992Z,24.23
2018-12-01T08:51:51.874Z,24.57
2018-12-01T08:56:55.360Z,24.07
2018-12-01T09:01:59.069Z,24.13
2018-12-01T09:07:02.637Z,23.23
2018-12-01T09:12:06.509Z,23.20
2018-12-01T09:17:10.282Z,24.93
2018-12-01T09:22:14.071Z,26.10
2018-12-01T09:27:22.349Z,27.83
2018-12-01T09:32:21.332Z,26.47
2018-12-01T09:37:25.071Z,26.20
2018-12-01T09:42:28.586Z,26.93
2018-12-01T09:47:32.166Z,24.90
2018-12-01T09:52:35.711Z,25.23
2018-12-01T09:57:40.418Z,25.30
2018-12-01T10:02:45.121Z,24.53
2018-12-01T10:07:48.767Z,24.17
2018-12-01T10:12:54.962Z,24.03
2018-12-01T10:17:58.548Z,23.47
2018-12-01T10:23:07.879Z,22.47
2018-12-01T10:28:12.074Z,22.57
2018-12-01T10:33:15.847Z,22.73
2018-12-01T10:38:19.731Z,22.80
2018-12-01T10:43:23.507Z,23.03
2018-12-01T10:48:27.032Z,21.27
2018-12-01T10:53:30.626Z,21.23
2018-12-01T10:58:34.801Z,21.40
2018-12-01T11:03:44.713Z,20.30
2018-12-01T11:08:48.892Z,20.87
2018-12-01T11:13:52.423Z,21.70
2018-12-01T11:18:55.951Z,20.53
2018-12-01T11:23:59.627Z,20.37
2018-12-01T11:29:03.426Z,18.57
2018-12-01T11:34:07.069Z,20.67
2018-12-01T11:39:10.763Z,20.87
2018-12-01T11:44:14.574Z,20.70
2018-12-01T11:49:18.595Z,20.97
2018-12-01T11:54:22.112Z,22.87
2018-12-01T11:59:25.760Z,22.27
2018-12-01T12:04:29.402Z,21.37
2018-12-01T12:09:33.044Z,21.73
2018-12-01T12:14:36.662Z,21.87
2018-12-01T12:19:40.299Z,21.70
2018-12-01T12:24:43.825Z,21.30
2018-12-01T12:29:47.491Z,21.27
2018-12-01T12:34:50.974Z,22.10
2018-12-01T12:39:54.430Z,21.20
2018-12-01T12:44:58.091Z,22.13
2018-12-01T12:50:01.681Z,22.03
2018-12-01T12:55:10.580Z,19.80
2018-12-01T13:00:16.069Z,19.70
2018-12-01T13:05:22.874Z,20.40
2018-12-01T13:10:26.966Z,20.17
2018-12-01T13:15:30.639Z,19.73
2018-12-01T13:20:34.211Z,20.30
2018-12-01T13:25:39.700Z,20.63
2018-12-01T13:30:52.586Z,19.07
2018-12-01T13:35:57.223Z,17.20
2018-12-01T13:41:00.739Z,17.27
2018-12-01T13:46:04.366Z,17.53
2018-12-01T13:51:08.351Z,16.90
2018-12-01T13:56:12.042Z,16.57
2018-12-01T14:01:15.576Z,17.23
2018-12-01T14:06:19.774Z,16.47
2018-12-01T14:11:24.260Z,15.63
2018-12-01T14:16:27.318Z,16.23
2018-12-01T14:21:30.941Z,15.60
2018-12-01T14:26:34.536Z,14.50
2018-12-01T14:31:38.099Z,13.50
2018-12-01T14:36:41.561Z,13.20
2018-12-01T14:41:45.089Z,13.20
2018-12-01T14:46:48.828Z,12.10
2018-12-01T14:51:52.347Z,13.03
2018-12-01T14:56:56.045Z,12.13
2018-12-01T15:01:59.556Z,11.20
2018-12-01T15:07:03.106Z,11.30
2018-12-01T15:12:06.848Z,10.60
2018-12-01T15:17:10.330Z,10.97
2018-12-01T15:22:16.920Z,11.17
2018-12-01T15:27:50.555Z,10.90
2018-12-01T15:33:13.722Z,10.20
2018-12-01T15:38:17.389Z,10.27
2018-12-01T15:43:21.389Z,10.17
2018-12-01T15:48:25.172Z,9.27
2018-12-01T15:53:28.878Z,9.33
2018-12-01T15:58:32.621Z,8.93
2018-12-01T16:03:36.317Z,10.07
2018-12-01T16:08:40.787Z,9.27
2018-12-01T16:13:44.593Z,9.03
2018-12-01T16:18:48.209Z,8.70
2018-12-01T16:23:51.734Z,9.20
2018-12-01T16:28:55.563Z,9.57
2018-12-01T16:33:59.129Z,8.13
2018-12-01T16:39:03.091Z,7.83
2018-12-01T16:44:06.847Z,8.40
2018-12-01T16:49:10.380Z,8.07
2018-12-01T16:54:14.003Z,7.83
2018-12-01T16:59:17.631Z,8.10
2018-12-01T17:04:21.122Z,7.73
2018-12-01T17:09:24.679Z,7.87
2018-12-01T17:14:28.585Z,7.20
2018-12-01T17:19:32.154Z,7.50
2018-12-01T17:24:35.779Z,7.37
2018-12-01T17:29:39.442Z,7.13
2018-12-01T17:34:43.110Z,8.37
2018-12-01T17:39:46.734Z,8.27
2018-12-01T17:44:50.440Z,7.87
2018-12-01T17:49:54.151Z,7.93
2018-12-01T17:54:58.038Z,7.77
2018-12-01T18:00:01.573Z,7.27
2018-12-01T18:05:08.953Z,6.70
2018-12-01T18:10:13.923Z,7.07
2018-12-01T18:15:18.236Z,6.63
2018-12-01T18:20:22.735Z,6.93
2018-12-01T18:25:28.416Z,6.47
2018-12-01T18:30:36.024Z,5.83
2018-12-01T18:35:39.836Z,6.20
2018-12-01T18:40:43.447Z,6.57
2018-12-01T18:45:50.078Z,6.03
2018-12-01T18:50:53.713Z,5.73
2018-12-01T18:55:57.683Z,5.53
2018-12-01T19:01:01.172Z,5.17
2018-12-01T19:06:05.105Z,5.67
2018-12-01T19:11:08.944Z,5.63
2018-12-01T19:16:12.477Z,6.23
2018-12-01T19:21:16.075Z,6.40
2018-12-01T19:26:19.545Z,5.93
2018-12-01T19:31:23.072Z,6.30
2018-12-01T19:36:26.717Z,5.33
2018-12-01T19:41:30.317Z,5.33
2018-12-01T19:46:34.043Z,6.07
2018-12-01T19:51:37.563Z,5.70
2018-12-01T19:56:41.169Z,5.70
2018-12-01T20:01:44.762Z,5.80
2018-12-01T20:06:48.435Z,5.50
2018-12-01T20:11:52.103Z,5.90
2018-12-01T20:16:56.859Z,5.30
2018-12-01T20:22:00.542Z,5.67
2018-12-01T20:27:05.309Z,5.93
2018-12-01T20:32:09.024Z,5.90
2018-12-01T20:37:17.756Z,6.83
2018-12-01T20:42:21.491Z,7.03
2018-12-01T20:47:26.675Z,6.73
2018-12-01T20:52:30.352Z,6.90
2018-12-01T20:57:33.946Z,7.07
2018-12-01T21:02:37.644Z,6.63
2018-12-01T21:07:41.624Z,6.47
2018-12-01T21:12:45.863Z,6.60
2018-12-01T21:17:51.052Z,5.90
2018-12-01T21:22:55.347Z,7.00
2018-12-01T21:28:01.637Z,6.73
2018-12-01T21:33:15.166Z,6.87
2018-12-01T21:38:18.716Z,7.00
2018-12-01T21:43:22.263Z,6.17
2018-12-01T21:48:25.774Z,5.97
2018-12-01T21:53:29.551Z,6.13
2018-12-01T21:58:33.083Z,6.70
2018-12-01T22:03:36.640Z,6.20
2018-12-01T22:08:40.137Z,5.40
2018-12-01T22:13:43.780Z,6.30
2018-12-01T22:18:47.453Z,6.23
2018-12-01T22:23:50.964Z,7.10
2018-12-01T22:28:54.634Z,7.10
2018-12-01T22:33:58.180Z,6.90
2018-12-01T22:39:01.778Z,7.37
2018-12-01T22:44:12.564Z,6.87
2018-12-01T22:49:16.099Z,7.80
2018-12-01T22:54:19.571Z,7.37
2018-12-01T22:59:23.187Z,8.40
2018-12-01T23:04:26.781Z,8.43
2018-12-01T23:09:30.565Z,9.00
2018-12-01T23:14:35.103Z,10.00
2018-12-01T23:19:39.802Z,9.97
2018-12-01T23:24:43.307Z,10.60
2018-12-01T23:29:46.743Z,12.50
2018-12-01T23:34:50.491Z,11.00
2018-12-01T23:39:53.954Z,10.23
2018-12-01T23:44:58.325Z,10.23
2018-12-01T23:50:01.938Z,10.00
2018-12-01T23:55:12.076Z,9.77
